Time;durP1;ratioP1;P1;durP2;ratioP2;P2;SDS_P1;SDS_P2;PMS_P1;PMS_P2;Temp;Humidity;BMP_temperature;BMP_pressure;BME280_temperature;BME280_humidity;BME280_pressure;Samples;Min_cycle;Max_cycle;Signal;HPM_P1;HPM_P2
2022/10/29 00:00:38;;;;;;;11.98;8.13;;;;;;;10.82;75.09;99889.03;5032140;28;20063;-54
2022/10/29 00:03:03;;;;;;;12.48;7.47;;;;;;;10.83;75.32;99888.06;5032122;28;20061;-51
2022/10/29 00:05:29;;;;;;;11.90;7.43;;;;;;;10.84;75.31;99887.09;5032521;28;20022;-51
2022/10/29 00:07:54;;;;;;;11.05;7.55;;;;;;;10.55;75.03;99831.38;5032276;28;20492;-52
2022/10/29 00:10:20;;;;;;;11.98;7.70;;;;;;;10.87;75.30;99886.88;5031095;28;20037;-53
2022/10/29 00:12:45;;;;;;;13.27;7.72;;;;;;;10.87;75.30;99878.81;5037302;28;20036;-63
2022/10/29 00:15:11;;;;;;;10.23;7.63;;;;;;;10.88;74.95;99884.03;5056310;28;20025;-58
2022/10/29 00:17:36;;;;;;;10.23;7.47;;;;;;;10.90;75.10;99883.94;5037273;28;20033;-55
2022/10/29 00:20:02;;;;;;;10.50;7.30;;;;;;;10.84;75.08;99882.59;5036035;28;20359;-57
2022/10/29 00:22:29;;;;;;;11.20;7.32;;;;;;;10.69;75.09;99852.56;5035789;28;20434;-57
2022/10/29 00:24:54;;;;;;;10.57;7.10;;;;;;;10.85;74.97;99878.94;5036141;28;20086;-55
2022/10/29 00:27:20;;;;;;;11.50;7.28;;;;;;;10.85;74.71;99876.25;5051174;28;20475;-56
2022/10/29 00:29:45;;;;;;;10.45;6.22;;;;;;;10.87;75.13;99881.50;5045833;28;20039;-54
2022/10/29 00:32:11;;;;;;;9.88;6.80;;;;;;;10.87;74.75;99882.34;5035965;28;20029;-51
2022/10/29 00:34:37;;;;;;;8.45;6.35;;;;;;;10.83;74.44;99866.63;5034448;28;20082;-54
2022/10/29 00:37:03;;;;;;;7.68;6.15;;;;;;;10.71;74.51;99852.41;5047600;28;20021;-58
2022/10/29 00:39:29;;;;;;;8.13;5.97;;;;;;;10.83;74.99;99867.50;5055868;28;20044;-55
2022/10/29 00:41:55;;;;;;;8.38;5.55;;;;;;;10.82;74.75;99868.47;5045658;28;20053;-53
2022/10/29 00:44:27;;;;;;;10.55;5.90;;;;;;;10.90;74.52;99870.53;5035559;28;20037;-55
2022/10/29 00:47:01;;;;;;;9.02;5.40;;;;;;;10.91;74.44;99873.06;5046995;28;20087;-53
2022/10/29 00:49:27;;;;;;;6.88;5.50;;;;;;;10.84;74.10;99854.94;5055449;28;20083;-54
2022/10/29 00:51:55;;;;;;;8.48;5.50;;;;;;;10.71;74.23;99839.88;5050499;28;20102;-55
2022/10/29 00:54:21;;;;;;;7.13;4.80;;;;;;;10.83;74.19;99855.91;5035247;28;20037;-54
2022/10/29 00:57:02;;;;;;;5.78;4.90;;;;;;;10.91;74.01;99859.69;5045568;28;20353;-52
2022/10/29 00:59:27;;;;;;;6.55;4.65;;;;;;;10.73;73.95;99851.31;5054998;28;20048;-55
2022/10/29 01:01:54;;;;;;;6.57;4.53;;;;;;;10.76;74.09;99853.75;5047002;28;20033;-50
2022/10/29 01:04:21;;;;;;;6.78;4.95;;;;;;;10.75;74.23;99857.41;5035762;28;20045;-50
2022/10/29 01:06:47;;;;;;;5.93;4.55;;;;;;;10.69;74.14;99847.19;5045771;28;20094;-51
2022/10/29 01:09:12;;;;;;;5.85;4.63;;;;;;;10.69;74.42;99847.19;5053878;28;20109;-53
2022/10/29 01:11:46;;;;;;;6.20;4.38;;;;;;;10.64;74.10;99838.69;5054307;28;20616;-50
2022/10/29 01:14:37;;;;;;;6.07;4.63;;;;;;;10.69;74.61;99830.25;5055080;28;20514;-51
2022/10/29 01:17:13;;;;;;;7.07;4.18;;;;;;;10.56;74.70;99819.69;5053024;28;20124;-52
2022/10/29 01:20:07;;;;;;;5.63;3.88;;;;;;;10.55;74.58;99831.38;5054634;28;20055;-54
2022/10/29 01:23:09;;;;;;;5.75;4.32;;;;;;;10.42;75.11;99824.34;5054175;28;20032;-53
2022/10/29 01:25:59;;;;;;;7.18;4.18;;;;;;;10.27;75.21;99825.53;5054076;28;20029;-55
2022/10/29 01:29:02;;;;;;;5.78;3.97;;;;;;;10.23;75.36;99826.75;5034580;28;20429;-55
2022/10/29 01:31:49;;;;;;;6.90;4.28;;;;;;;10.08;75.63;99823.47;5034930;28;20343;-57
2022/10/29 01:34:27;;;;;;;5.15;3.90;;;;;;;10.02;75.53;99812.28;5035203;28;20040;-55
2022/10/29 01:37:01;;;;;;;5.55;3.80;;;;;;;9.91;76.30;99815.81;5034537;28;20064;-50
2022/10/29 01:39:48;;;;;;;4.45;3.67;;;;;;;9.83;76.22;99815.53;5050805;28;20040;-54
2022/10/29 01:42:27;;;;;;;4.65;3.67;;;;;;;9.77;76.72;99811.53;5054373;28;20063;-54
2022/10/29 01:45:15;;;;;;;7.20;3.72;;;;;;;9.76;76.51;99806.28;5041099;28;20037;-54
2022/10/29 01:47:46;;;;;;;4.75;3.72;;;;;;;9.66;76.79;99800.81;5034135;28;20905;-54
2022/10/29 01:50:17;;;;;;;5.75;3.28;;;;;;;9.62;77.08;99805.53;5034490;28;20690;-54
2022/10/29 01:52:45;;;;;;;5.30;3.53;;;;;;;9.60;76.78;99802.13;5034530;28;20035;-54
2022/10/29 01:55:15;;;;;;;4.65;3.28;;;;;;;9.63;76.85;99804.56;5049549;28;20032;-53
2022/10/29 01:57:40;;;;;;;6.28;3.53;;;;;;;9.59;76.59;99800.44;5048790;28;20084;-55
2022/10/29 02:00:17;;;;;;;5.55;3.53;;;;;;;9.66;76.91;99806.16;5054030;28;20367;-57
2022/10/29 02:02:58;;;;;;;6.25;4.03;;;;;;;9.58;76.89;99790.69;5054364;28;20033;-54
2022/10/29 02:05:45;;;;;;;3.72;3.20;;;;;;;9.60;76.92;99793.28;5053863;28;20129;-54
2022/10/29 02:08:40;;;;;;;4.95;3.53;;;;;;;9.62;76.95;99786.81;5051988;28;20182;-54
2022/10/29 02:11:53;;;;;;;4.10;3.47;;;;;;;9.65;76.93;99790.25;5053830;28;20067;-54
2022/10/29 02:14:37;;;;;;;3.78;3.38;;;;;;;9.57;76.55;99783.66;4973533;28;20133;-52
2022/10/29 02:17:02;;;;;;;5.07;3.67;;;;;;;9.45;76.68;99779.28;4956811;28;20034;-53
2022/10/29 02:19:34;;;;;;;6.18;4.22;;;;;;;9.46;77.19;99781.81;4972375;28;20121;-51
2022/10/29 02:21:59;;;;;;;7.15;4.28;;;;;;;9.41;77.45;99773.31;4964277;28;20077;-53
2022/10/29 02:24:25;;;;;;;8.18;3.90;;;;;;;9.43;77.15;99776.69;4953449;29;20039;-54
2022/10/29 02:26:51;;;;;;;5.10;4.20;;;;;;;9.43;77.06;99782.06;4954226;29;20114;-55
2022/10/29 02:29:16;;;;;;;4.85;4.32;;;;;;;9.45;77.40;99776.59;4964729;28;20039;-56
2022/10/29 02:31:42;;;;;;;4.50;4.10;;;;;;;9.45;77.21;99765.91;4972697;28;20043;-53
2022/10/29 02:34:07;;;;;;;5.90;4.40;;;;;;;9.33;77.01;99741.81;4973109;28;20448;-54
2022/10/29 02:36:33;;;;;;;5.07;4.30;;;;;;;9.54;77.02;99775.03;4971762;28;20035;-57
2022/10/29 02:38:58;;;;;;;5.05;4.50;;;;;;;9.54;77.09;99767.03;4963233;28;20074;-57
2022/10/29 02:41:23;;;;;;;7.93;4.63;;;;;;;9.61;77.08;99773.59;4953907;29;20119;-60
2022/10/29 02:43:49;;;;;;;7.53;4.75;;;;;;;9.54;76.80;99746.47;4965706;28;20089;-54
2022/10/29 02:46:17;;;;;;;7.10;4.95;;;;;;;9.78;76.46;99766.91;5033096;28;20423;-53
2022/10/29 02:48:43;;;;;;;6.30;4.97;;;;;;;9.83;76.29;99764.72;5038605;28;20040;-57
2022/10/29 02:51:09;;;;;;;6.32;5.13;;;;;;;9.90;75.93;99771.31;5053375;28;20029;-54
2022/10/29 02:53:34;;;;;;;6.95;4.78;;;;;;;9.98;75.77;99753.81;5068607;28;20040;-55
2022/10/29 02:55:59;;;;;;;6.78;4.90;;;;;;;10.01;75.91;99751.75;5053089;28;20124;-55
2022/10/29 02:58:25;;;;;;;7.28;4.97;;;;;;;10.11;75.77;99751.00;5048458;28;20048;-62
2022/10/29 03:00:51;;;;;;;6.65;5.10;;;;;;;10.18;75.33;99749.53;5033228;28;20037;-57
2022/10/29 03:03:17;;;;;;;5.80;4.78;;;;;;;10.24;75.26;99743.66;5032824;28;20030;-52
2022/10/29 03:05:42;;;;;;;8.48;5.78;;;;;;;10.29;75.20;99751.34;5048650;28;20463;-56
2022/10/29 03:08:08;;;;;;;5.93;4.63;;;;;;;10.33;74.62;99739.41;5042904;28;20032;-54
2022/10/29 03:10:33;;;;;;;6.90;5.15;;;;;;;10.37;74.63;99730.19;5032979;28;20120;-55
2022/10/29 03:12:59;;;;;;;7.47;5.13;;;;;;;10.30;74.39;99707.56;5032619;28;20034;-56
2022/10/29 03:15:25;;;;;;;6.80;5.10;;;;;;;10.48;74.17;99735.53;5033063;28;20086;-56
2022/10/29 03:17:50;;;;;;;6.63;5.40;;;;;;;10.48;74.05;99726.63;5033205;28;20040;-52
2022/10/29 03:20:16;;;;;;;8.43;5.00;;;;;;;10.54;74.02;99727.97;5066581;28;20033;-57
2022/10/29 03:22:41;;;;;;;7.20;4.88;;;;;;;10.59;74.20;99721.25;5051870;28;20089;-50
2022/10/29 03:25:07;;;;;;;7.03;5.20;;;;;;;10.63;73.69;99730.72;5052493;28;20375;-51
2022/10/29 03:27:40;;;;;;;4.90;4.40;;;;;;;10.64;73.59;99710.19;5068582;28;20451;-53
2022/10/29 03:30:06;;;;;;;6.25;4.93;;;;;;;10.50;73.45;99689.03;5035300;28;20471;-54
2022/10/29 03:32:32;;;;;;;7.03;4.80;;;;;;;10.69;73.44;99718.66;5048306;28;20455;-54
2022/10/29 03:34:57;;;;;;;8.20;4.85;;;;;;;10.68;73.84;99711.63;5052194;28;20029;-61
2022/10/29 03:37:23;;;;;;;10.02;5.20;;;;;;;10.74;73.59;99704.91;5052879;28;20044;-53
2022/10/29 03:39:48;;;;;;;7.28;5.38;;;;;;;10.73;73.39;99704.03;5037541;28;20044;-57
2022/10/29 03:42:13;;;;;;;5.90;4.95;;;;;;;10.62;73.04;99685.38;5032164;28;20503;-51
2022/10/29 03:44:39;;;;;;;7.05;5.03;;;;;;;10.71;73.10;99703.31;5045038;28;20043;-56
2022/10/29 03:47:06;;;;;;;5.88;5.00;;;;;;;10.71;73.25;99694.44;5051426;28;20095;-52
2022/10/29 03:49:32;;;;;;;5.53;4.85;;;;;;;10.71;73.40;99699.78;5055579;28;20045;-55
2022/10/29 03:51:57;;;;;;;7.45;5.32;;;;;;;10.64;73.30;99694.13;5032441;28;20037;-60
2022/10/29 03:54:23;;;;;;;6.05;5.22;;;;;;;10.68;73.30;99694.69;5032263;28;20040;-57
2022/10/29 03:56:48;;;;;;;5.93;4.80;;;;;;;10.67;73.48;99690.31;5052465;28;20037;-55
2022/10/29 03:59:14;;;;;;;6.35;5.10;;;;;;;10.64;73.30;99683.41;5042009;28;20033;-53
2022/10/29 04:01:39;;;;;;;6.88;5.25;;;;;;;10.69;73.15;99691.91;5032230;28;20100;-54
2022/10/29 04:04:04;;;;;;;7.22;5.05;;;;;;;10.68;72.89;99679.50;5032362;28;20112;-53
2022/10/29 04:06:30;;;;;;;6.47;5.05;;;;;;;10.69;72.71;99681.19;5032229;28;20417;-57
2022/10/29 04:08:55;;;;;;;5.50;4.85;;;;;;;10.65;72.98;99678.88;5039435;28;20458;-54
2022/10/29 04:11:21;;;;;;;9.48;4.93;;;;;;;10.67;72.89;99667.09;5051998;28;20029;-54
2022/10/29 04:13:46;;;;;;;6.57;4.88;;;;;;;10.63;73.27;99666.47;5051931;28;20057;-53
2022/10/29 04:16:12;;;;;;;6.80;5.80;;;;;;;10.65;73.02;99663.69;5052416;28;20128;-53
2022/10/29 04:18:37;;;;;;;9.38;6.68;;;;;;;10.68;73.07;99674.13;5050119;28;20099;-54
2022/10/29 04:21:03;;;;;;;10.95;6.45;;;;;;;10.66;73.21;99657.34;5051810;28;20351;-54
2022/10/29 04:23:28;;;;;;;11.00;7.60;;;;;;;10.61;72.92;99635.47;5052420;28;20025;-55
2022/10/29 04:25:58;;;;;;;9.38;7.13;;;;;;;10.70;73.26;99655.25;5051151;28;20040;-61
2022/10/29 04:28:23;;;;;;;8.88;6.15;;;;;;;10.46;73.15;99614.34;5048368;28;20087;-58
2022/10/29 04:30:49;;;;;;;10.60;7.25;;;;;;;10.62;73.03;99643.34;5032026;28;20387;-55
2022/10/29 04:33:15;;;;;;;9.75;7.30;;;;;;;10.62;73.12;99629.97;5031690;28;20410;-55
2022/10/29 04:35:40;;;;;;;10.55;7.07;;;;;;;10.63;73.28;99633.50;5031868;28;20033;-55
2022/10/29 04:38:08;;;;;;;9.30;6.43;;;;;;;10.64;73.02;99637.88;5032126;28;20467;-59
2022/10/29 04:40:33;;;;;;;7.78;6.15;;;;;;;10.62;72.98;99627.28;5033729;28;20099;-54
2022/10/29 04:42:59;;;;;;;7.22;5.78;;;;;;;10.49;72.92;99589.16;5050884;28;20087;-54
2022/10/29 04:45:25;;;;;;;7.10;5.22;;;;;;;10.59;73.05;99607.94;5050847;28;20033;-57
2022/10/29 04:48:00;;;;;;;8.50;5.57;;;;;;;10.71;73.20;99611.41;5049745;28;20033;-58
2022/10/29 04:50:26;;;;;;;5.95;5.13;;;;;;;10.66;72.82;99606.47;5041586;28;20025;-57
2022/10/29 04:52:51;;;;;;;5.95;4.93;;;;;;;10.52;72.82;99582.69;5057619;28;20037;-57
2022/10/29 04:55:17;;;;;;;6.40;4.53;;;;;;;10.66;72.67;99590.41;5050655;28;20439;-56
2022/10/29 04:57:48;;;;;;;4.78;4.07;;;;;;;10.72;72.75;99597.91;5050420;28;20039;-52
2022/10/29 05:00:14;;;;;;;7.88;4.45;;;;;;;10.70;72.52;99591.84;5053528;28;20040;-59
2022/10/29 05:02:39;;;;;;;5.90;4.00;;;;;;;10.70;72.54;99590.97;5049124;28;20360;-58
2022/10/29 05:05:05;;;;;;;5.22;4.10;;;;;;;10.68;72.64;99584.91;5042796;28;20458;-56
2022/10/29 05:07:30;;;;;;;4.88;4.00;;;;;;;10.65;72.53;99564.63;5050944;28;20443;-63
2022/10/29 05:09:56;;;;;;;6.35;3.90;;;;;;;10.68;72.34;99583.09;5040182;28;20068;-50
2022/10/29 05:12:21;;;;;;;7.10;4.32;;;;;;;10.80;72.25;99596.41;5055346;28;20064;-60
2022/10/29 05:14:47;;;;;;;8.82;4.00;;;;;;;10.72;72.02;99578.31;5053910;28;20040;-67
2022/10/29 05:17:12;;;;;;;6.07;4.22;;;;;;;10.87;71.87;99592.25;5054398;28;20033;-59
2022/10/29 05:19:37;;;;;;;5.57;4.30;;;;;;;10.91;71.58;99594.50;5053437;28;20499;-52
2022/10/29 05:22:03;;;;;;;5.72;4.10;;;;;;;10.98;71.41;99594.00;5053844;28;20024;-60
2022/10/29 05:24:28;;;;;;;7.53;4.72;;;;;;;10.98;71.62;99592.16;5055149;28;20021;-54
2022/10/29 05:26:54;;;;;;;5.60;4.10;;;;;;;11.01;71.20;99589.22;5054552;28;20159;-56
2022/10/29 05:29:19;;;;;;;5.57;4.43;;;;;;;11.03;71.06;99589.91;5054615;28;20040;-65
2022/10/29 05:31:45;;;;;;;5.28;4.60;;;;;;;11.03;71.49;99576.53;5054962;28;20428;-53
2022/10/29 05:34:10;;;;;;;5.75;4.45;;;;;;;11.05;71.32;99569.19;5055162;28;20443;-53
2022/10/29 05:36:36;;;;;;;7.63;4.68;;;;;;;11.05;70.87;99553.13;5054656;28;20036;-52
2022/10/29 05:39:01;;;;;;;5.97;5.38;;;;;;;11.19;70.93;99569.84;5054402;28;20432;-51
2022/10/29 05:41:26;;;;;;;6.50;5.25;;;;;;;11.24;70.65;99572.97;5053670;28;20025;-63
2022/10/29 05:43:52;;;;;;;7.25;5.18;;;;;;;11.25;70.52;99569.28;5054446;28;20045;-64
2022/10/29 05:46:17;;;;;;;6.38;5.57;;;;;;;11.27;70.34;99570.00;5053739;28;20043;-60
2022/10/29 05:48:43;;;;;;;5.82;5.20;;;;;;;11.29;70.64;99561.84;5054068;28;20025;-57
2022/10/29 05:51:09;;;;;;;6.90;5.20;;;;;;;11.30;70.38;99561.69;5037104;28;20029;-51
2022/10/29 05:53:35;;;;;;;4.90;4.38;;;;;;;11.31;70.11;99558.03;5035578;28;20025;-59
2022/10/29 05:56:00;;;;;;;9.95;5.38;;;;;;;11.36;70.20;99556.78;5053181;28;20060;-56
2022/10/29 05:58:26;;;;;;;7.53;5.65;;;;;;;11.38;70.08;99552.16;5063192;28;20033;-55
2022/10/29 06:00:51;;;;;;;9.02;5.18;;;;;;;11.38;70.08;99549.47;5042666;28;20106;-53
2022/10/29 06:03:19;;;;;;;8.90;5.75;;;;;;;11.40;70.03;99550.19;5043818;28;20037;-54
2022/10/29 06:05:46;;;;;;;7.45;5.47;;;;;;;11.43;69.98;99549.91;5040040;28;20056;-57
2022/10/29 06:08:12;;;;;;;6.25;5.15;;;;;;;11.46;69.92;99549.63;5047033;28;20032;-57
2022/10/29 06:10:37;;;;;;;9.55;5.60;;;;;;;11.50;69.77;99545.69;5035966;28;20483;-59
2022/10/29 06:13:16;;;;;;;7.45;5.75;;;;;;;11.67;69.66;99546.00;5034974;28;20516;-59
2022/10/29 06:15:42;;;;;;;10.00;5.70;;;;;;;11.59;69.06;99538.66;5033841;28;20052;-57
2022/10/29 06:18:08;;;;;;;7.57;5.70;;;;;;;11.60;69.00;99537.66;5049358;28;20149;-57
2022/10/29 06:20:35;;;;;;;10.35;5.18;;;;;;;11.59;69.01;99527.94;5040313;28;20115;-60
2022/10/29 06:23:00;;;;;;;7.47;5.18;;;;;;;11.65;68.79;99529.22;5041584;28;20037;-59
2022/10/29 06:25:26;;;;;;;6.05;5.07;;;;;;;11.67;68.90;99536.13;5043548;28;20041;-59
2022/10/29 06:27:59;;;;;;;6.80;5.55;;;;;;;11.80;68.78;99533.16;5052231;28;20079;-58
2022/10/29 06:30:24;;;;;;;8.32;5.13;;;;;;;11.78;68.38;99527.97;5050182;28;20047;-58
2022/10/29 06:32:50;;;;;;;11.20;5.78;;;;;;;11.80;68.33;99527.81;5052392;28;20360;-62
2022/10/29 06:35:15;;;;;;;9.25;5.32;;;;;;;11.81;68.26;99516.09;5048049;28;20040;-57
2022/10/29 06:37:41;;;;;;;7.13;5.60;;;;;;;11.83;68.10;99519.50;5033154;28;20044;-60
2022/10/29 06:40:07;;;;;;;8.07;5.38;;;;;;;11.83;68.08;99515.97;5052095;28;20055;-56
2022/10/29 06:42:32;;;;;;;9.88;5.35;;;;;;;11.71;67.95;99489.28;5053058;28;20370;-60
2022/10/29 06:44:57;;;;;;;7.50;5.30;;;;;;;11.81;67.89;99502.69;5052625;28;20104;-59
2022/10/29 06:47:23;;;;;;;8.02;5.22;;;;;;;11.68;67.78;99480.66;5053071;28;20040;-58
2022/10/29 06:49:48;;;;;;;7.65;4.95;;;;;;;11.84;67.82;99506.94;5051034;28;20037;-59
2022/10/29 06:52:14;;;;;;;9.90;4.97;;;;;;;11.75;68.25;99500.56;5039548;28;20029;-57
2022/10/29 06:54:39;;;;;;;5.78;4.90;;;;;;;11.74;68.18;99502.41;5051163;28;20029;-62
2022/10/29 06:57:04;;;;;;;7.95;4.95;;;;;;;11.65;68.32;99499.72;5052854;28;20094;-58
2022/10/29 06:59:30;;;;;;;7.22;5.28;;;;;;;11.62;68.43;99490.97;5039406;28;20112;-56
2022/10/29 07:01:55;;;;;;;10.20;5.30;;;;;;;11.56;68.72;99485.31;5064454;28;20049;-61
2022/10/29 07:04:21;;;;;;;7.15;4.53;;;;;;;11.60;68.82;99492.09;5052635;28;20028;-55
2022/10/29 07:06:46;;;;;;;6.28;4.45;;;;;;;11.61;68.57;99486.59;5049728;28;20037;-57
2022/10/29 07:09:12;;;;;;;11.60;4.78;;;;;;;11.65;68.84;99483.63;5043455;28;20028;-61
2022/10/29 07:11:38;;;;;;;11.73;5.25;;;;;;;11.73;68.20;99470.34;5052820;28;20092;-56
2022/10/29 07:14:04;;;;;;;10.82;5.18;;;;;;;11.80;68.18;99466.13;5052531;28;20048;-59
2022/10/29 07:16:30;;;;;;;8.13;5.18;;;;;;;11.85;67.88;99469.25;5041253;28;20052;-54
2022/10/29 07:18:56;;;;;;;9.20;5.30;;;;;;;11.95;67.35;99463.03;5041430;28;20182;-58
2022/10/29 07:21:22;;;;;;;9.95;5.47;;;;;;;11.85;67.36;99437.06;5043198;28;20056;-60
2022/10/29 07:23:47;;;;;;;6.15;4.95;;;;;;;12.03;67.34;99457.81;5037683;28;20372;-59
2022/10/29 07:26:12;;;;;;;8.52;5.35;;;;;;;11.91;67.24;99431.13;5032027;28;20064;-58
2022/10/29 07:28:38;;;;;;;7.00;5.47;;;;;;;12.05;67.03;99455.84;5038032;28;20076;-58
2022/10/29 07:31:03;;;;;;;14.15;6.30;;;;;;;12.08;67.10;99460.94;5037593;28;20033;-57
2022/10/29 07:33:32;;;;;;;10.60;6.22;;;;;;;12.07;67.23;99459.25;5045242;28;20139;-59
2022/10/29 07:35:58;;;;;;;11.05;6.07;;;;;;;12.05;67.12;99442.41;5051913;28;20108;-61
2022/10/29 07:38:24;;;;;;;12.93;6.68;;;;;;;12.12;66.85;99448.06;5048591;28;20125;-58
2022/10/29 07:40:51;;;;;;;9.27;6.43;;;;;;;11.98;66.96;99418.00;5046650;28;20057;-61
2022/10/29 07:43:18;;;;;;;8.13;6.25;;;;;;;12.15;66.65;99440.59;5048663;28;20053;-60
2022/10/29 07:45:44;;;;;;;10.65;6.38;;;;;;;12.17;66.59;99449.34;5050610;28;20032;-56
2022/10/29 07:48:10;;;;;;;9.07;6.20;;;;;;;12.17;66.53;99429.69;5049884;28;20029;-56
2022/10/29 07:50:37;;;;;;;8.50;5.97;;;;;;;12.23;66.85;99437.19;5051513;28;20029;-59
2022/10/29 07:53:05;;;;;;;10.60;6.55;;;;;;;12.28;66.13;99426.00;5041470;28;20040;-61
2022/10/29 07:55:30;;;;;;;11.82;6.43;;;;;;;12.37;66.02;99422.47;5050200;28;20036;-55
2022/10/29 07:58:01;;;;;;;7.90;6.05;;;;;;;12.47;65.94;99419.75;5049965;28;20059;-57
2022/10/29 08:00:31;;;;;;;9.85;6.07;;;;;;;12.48;65.80;99421.44;5051877;28;20071;-58
2022/10/29 08:02:57;;;;;;;9.57;5.93;;;;;;;12.38;65.99;99415.25;5048145;28;20035;-58
2022/10/29 08:05:24;;;;;;;8.98;6.57;;;;;;;12.24;66.75;99425.47;5050528;28;20029;-55
2022/10/29 08:07:53;;;;;;;12.57;6.82;;;;;;;12.18;67.39;99416.16;5052189;28;20041;-55
2022/10/29 08:10:19;;;;;;;10.18;6.13;;;;;;;12.08;67.82;99409.97;5051407;28;20025;-56
2022/10/29 08:12:55;;;;;;;9.52;6.18;;;;;;;12.03;67.86;99402.34;5048934;28;20432;-57
2022/10/29 08:15:21;;;;;;;9.75;6.43;;;;;;;11.89;68.98;99400.91;5049818;28;20039;-56
2022/10/29 08:17:48;;;;;;;10.30;6.38;;;;;;;11.83;69.20;99385.41;5050172;28;20037;-53
2022/10/29 08:20:15;;;;;;;10.40;5.70;;;;;;;11.79;69.28;99400.06;5049289;28;20039;-57
2022/10/29 08:22:41;;;;;;;8.40;5.50;;;;;;;11.75;69.32;99393.28;5050073;28;20391;-57
2022/10/29 08:25:07;;;;;;;7.35;4.85;;;;;;;11.71;69.39;99399.94;5066493;28;20145;-54
2022/10/29 08:27:32;;;;;;;6.72;4.55;;;;;;;11.71;69.61;99387.38;5051400;28;20110;-57
2022/10/29 08:29:58;;;;;;;7.57;4.90;;;;;;;11.73;69.54;99385.41;5051849;28;20440;-54
2022/10/29 08:32:23;;;;;;;8.05;5.13;;;;;;;11.83;70.26;99385.41;5051706;28;20086;-56
2022/10/29 08:34:48;;;;;;;7.90;5.28;;;;;;;11.98;69.17;99387.63;5054924;28;20029;-63
2022/10/29 08:37:14;;;;;;;8.82;5.15;;;;;;;12.13;69.46;99377.31;5057962;28;20052;-61
2022/10/29 08:39:39;;;;;;;8.98;5.38;;;;;;;12.25;68.71;99372.63;5038630;28;20040;-65
2022/10/29 08:42:24;;;;;;;10.40;5.70;;;;;;;12.41;68.06;99378.22;5055717;28;20053;-65
2022/10/29 08:44:58;;;;;;;9.60;5.85;;;;;;;12.45;67.40;99378.78;5049006;28;20192;-65
2022/10/29 08:47:24;;;;;;;9.40;6.05;;;;;;;12.40;67.24;99375.66;5054869;28;20032;-68
2022/10/29 08:50:13;;;;;;;11.35;6.40;;;;;;;12.45;67.63;99374.25;5053836;28;20419;-67
2022/10/29 08:52:41;;;;;;;8.43;6.40;;;;;;;12.30;67.38;99365.81;5046279;28;20025;-66
2022/10/29 08:55:12;;;;;;;10.65;5.93;;;;;;;12.27;67.29;99354.53;5053163;28;20128;-66
2022/10/29 08:57:42;;;;;;;10.60;6.55;;;;;;;12.27;67.90;99349.16;5070557;28;20108;-66
2022/10/29 09:00:14;;;;;;;8.27;6.10;;;;;;;12.29;68.06;99341.78;5055270;28;20037;-65
2022/10/29 09:02:39;;;;;;;9.05;6.03;;;;;;;12.28;67.75;99337.41;5053945;28;20356;-67
2022/10/29 09:05:11;;;;;;;9.95;6.15;;;;;;;12.32;67.20;99330.78;5037835;28;20136;-67
2022/10/29 09:07:41;;;;;;;10.52;6.15;;;;;;;12.43;67.40;99325.22;5034206;28;20037;-67
2022/10/29 09:10:23;;;;;;;8.73;5.97;;;;;;;12.61;67.26;99314.53;5035411;28;20075;-66
2022/10/29 09:13:03;;;;;;;8.88;6.53;;;;;;;12.70;67.21;99322.69;5034312;28;20072;-65
2022/10/29 09:16:00;;;;;;;9.52;5.95;;;;;;;12.82;67.03;99317.97;5034502;28;20037;-66
2022/10/29 09:18:40;;;;;;;6.65;5.40;;;;;;;12.85;66.94;99312.28;5050214;28;20455;-66
2022/10/29 09:21:30;;;;;;;8.20;5.30;;;;;;;12.91;67.04;99314.34;5034831;28;20373;-66
2022/10/29 09:24:22;;;;;;;7.75;5.80;;;;;;;12.88;66.83;99312.81;5038632;28;20352;-66
2022/10/29 09:26:57;;;;;;;10.98;6.05;;;;;;;12.75;66.88;99309.66;5017218;28;20040;-67
2022/10/29 09:29:44;;;;;;;;;;;;;;;12.98;66.59;99303.84;5055131;28;20029;-67
2022/10/29 09:32:21;;;;;;;8.65;5.72;;;;;;;12.62;67.04;99291.22;5034543;28;19917;-66
2022/10/29 09:34:50;;;;;;;8.43;6.03;;;;;;;12.43;67.56;99279.56;5053503;28;20087;-66
2022/10/29 09:37:22;;;;;;;8.10;5.88;;;;;;;12.36;67.77;99278.50;5053200;28;20029;-66
2022/10/29 09:39:48;;;;;;;9.23;6.28;;;;;;;12.22;68.51;99268.25;5070349;28;20101;-68
2022/10/29 09:42:34;;;;;;;9.88;6.18;;;;;;;12.28;68.79;99270.31;5053977;28;20110;-67
2022/10/29 09:45:01;;;;;;;;;;;;;;;12.56;67.54;99273.03;5052756;28;20124;-68
2022/10/29 09:48:08;;;;;;;8.40;6.03;;;;;;;12.39;67.85;99272.81;5053538;28;19912;-68
2022/10/29 09:50:51;;;;;;;8.68;6.32;;;;;;;12.30;67.49;99268.38;5053269;28;20094;-67
2022/10/29 09:53:17;;;;;;;14.55;6.78;;;;;;;12.16;67.74;99259.78;5041041;28;20040;-67
2022/10/29 09:55:45;;;;;;;10.90;6.90;;;;;;;12.13;68.07;99262.78;5053412;28;20087;-67
2022/10/29 09:58:23;;;;;;;12.02;7.13;;;;;;;12.10;68.26;99252.34;5052398;28;20036;-67
2022/10/29 10:00:50;;;;;;;10.82;7.78;;;;;;;12.02;68.49;99266.50;5032679;28;20033;-65
2022/10/29 10:03:36;;;;;;;13.23;7.88;;;;;;;12.12;68.38;99257.53;5050141;28;20025;-68
2022/10/29 10:06:07;;;;;;;11.90;8.02;;;;;;;12.06;68.00;99250.94;5052969;28;20090;-69
2022/10/29 10:08:34;;;;;;;15.20;8.55;;;;;;;11.98;68.34;99262.38;5049825;28;20036;-67
2022/10/29 10:11:05;;;;;;;14.02;8.82;;;;;;;11.94;68.19;99252.94;5052937;28;20025;-67
2022/10/29 10:13:48;;;;;;;13.07;8.80;;;;;;;11.95;68.51;99243.91;5036239;28;20467;-66
2022/10/29 10:16:23;;;;;;;14.15;9.00;;;;;;;11.95;68.44;99227.81;5053186;28;20059;-67
2022/10/29 10:18:49;;;;;;;15.67;9.37;;;;;;;11.85;68.58;99222.47;5041741;28;20140;-66
2022/10/29 10:21:29;;;;;;;17.83;9.13;;;;;;;11.91;68.64;99226.38;5032724;28;20116;-68
2022/10/29 10:23:56;;;;;;;12.40;9.02;;;;;;;11.83;68.55;99232.50;5033700;28;20034;-67
2022/10/29 10:26:30;;;;;;;14.82;9.48;;;;;;;11.88;68.94;99224.88;5044358;28;20025;-68
2022/10/29 10:29:11;;;;;;;14.15;8.75;;;;;;;11.96;68.77;99223.28;5036949;28;20108;-68
2022/10/29 10:31:38;;;;;;;13.95;8.98;;;;;;;11.87;68.58;99207.06;5049132;28;20043;-67
2022/10/29 10:34:16;;;;;;;13.95;9.30;;;;;;;11.96;68.76;99208.03;5049345;28;20037;-67
2022/10/29 10:36:49;;;;;;;13.65;9.27;;;;;;;11.96;68.47;99202.66;5033423;28;20353;-66
2022/10/29 10:39:35;;;;;;;12.73;9.40;;;;;;;11.97;68.60;99209.72;5032635;28;20083;-68
2022/10/29 10:42:15;;;;;;;16.63;9.45;;;;;;;11.95;68.63;99200.97;5032378;28;20057;-67
2022/10/29 10:44:48;;;;;;;16.92;9.73;;;;;;;11.98;68.29;99192.63;5033343;28;20029;-67
2022/10/29 10:47:18;;;;;;;19.60;10.75;;;;;;;11.95;68.38;99184.03;5017059;28;20124;-67
2022/10/29 10:49:44;;;;;;;19.27;10.55;;;;;;;11.95;68.20;99179.53;5053326;28;20033;-67
2022/10/29 10:52:19;;;;;;;17.15;10.00;;;;;;;12.03;68.48;99176.09;5053280;28;20039;-66
2022/10/29 10:54:46;;;;;;;;;;;;;;;12.32;67.61;99178.63;5052169;28;20119;-67
2022/10/29 10:57:11;;;;;;;16.75;10.30;;;;;;;12.08;67.79;99179.19;5050061;28;19912;-68
2022/10/29 10:59:55;;;;;;;16.70;10.55;;;;;;;12.12;67.91;99171.69;5032340;28;20376;-68
2022/10/29 11:02:25;;;;;;;18.35;10.98;;;;;;;11.97;67.68;99164.13;5061331;28;20111;-67
2022/10/29 11:04:58;;;;;;;21.45;10.85;;;;;;;11.96;68.25;99164.25;5068757;28;20256;-65
2022/10/29 11:07:30;;;;;;;17.00;10.57;;;;;;;11.90;68.25;99160.31;5056622;28;20079;-68
2022/10/29 11:09:57;;;;;;;20.60;11.50;;;;;;;11.90;68.28;99157.63;5035391;28;20037;-68
2022/10/29 11:12:35;;;;;;;22.17;11.40;;;;;;;11.90;68.38;99155.81;5052205;28;20505;-70
2022/10/29 11:15:11;;;;;;;17.90;11.77;;;;;;;11.89;68.38;99154.13;5051890;28;20064;-68
2022/10/29 11:17:58;;;;;;;18.45;11.13;;;;;;;11.95;68.59;99151.84;5048538;28;20356;-66
2022/10/29 11:20:32;;;;;;;18.70;11.02;;;;;;;11.91;68.60;99146.78;5032203;28;20029;-68
2022/10/29 11:23:03;;;;;;;16.05;10.57;;;;;;;11.82;68.38;99146.81;5031923;28;20103;-67
2022/10/29 11:25:55;;;;;;;17.67;11.23;;;;;;;11.95;68.63;99146.47;5015086;28;20099;-67
2022/10/29 11:28:45;;;;;;;19.42;11.50;;;;;;;11.97;68.36;99141.78;5043892;28;20064;-68
2022/10/29 11:31:38;;;;;;;21.75;11.27;;;;;;;11.99;67.81;99129.94;5068972;28;20033;-68
2022/10/29 11:34:09;;;;;;;20.45;11.57;;;;;;;11.85;68.34;99133.97;5052953;28;20041;-68
2022/10/29 11:36:41;;;;;;;16.67;11.80;;;;;;;11.85;68.60;99123.25;5067094;28;20359;-68
2022/10/29 11:39:25;;;;;;;18.42;11.63;;;;;;;11.74;69.01;99089.41;5047883;28;20132;-68
2022/10/29 11:41:59;;;;;;;18.10;11.55;;;;;;;11.88;69.19;99122.06;5032279;28;20090;-67
2022/10/29 11:44:25;;;;;;;17.98;11.15;;;;;;;11.77;69.42;99110.56;5031855;28;20041;-69